TGW983 VHHH-WSSS
Flight info
| Callsign | TGW983 |
|---|---|
| Flight time | 1h 49m |
| Altitude | 40000 |
| Route | PECAN V12 EPDOS L642 EPKAL/K0889F400 L642 ESPOB/N0477F400 Q801 ESBUM/N0477F410 Q802 ELALO ELALO1B |
| Aircraft | B788/H-SDE1E2E3FGHIJ2J3J4J5M1RWXY/LB1D1 |
Departure
| Time | 2026-05-05 02:31 |
|---|---|
| Airport | Hong Kong International Airport (VHHH) |
Arrival
| Time | 2026-05-05 04:21 |
|---|---|
| Airport | Singapore Changi Airport (WSSS) |
| Time | Latitude | Longitude | Altitude | Speed | Heading |
|---|---|---|---|---|---|
| 2026-05-05 01:49 | 22.31038 | 113.91668 | 42 ft | 0 kts | 71° |
| 2026-05-05 02:19 | 22.31035 | 113.91659 | 43 ft | 3 kts | 71° |
| 2026-05-05 02:19 | 22.31029 | 113.91640 | 40 ft | 3 kts | 71° |
| 2026-05-05 02:20 | 22.31023 | 113.91621 | 41 ft | 3 kts | 71° |
| 2026-05-05 02:20 | 22.31016 | 113.91602 | 40 ft | 3 kts | 43° |
| 2026-05-05 02:20 | 22.31001 | 113.91591 | 39 ft | 3 kts | 5° |
| 2026-05-05 02:20 | 22.30990 | 113.91590 | 41 ft | 0 kts | 346° |
| 2026-05-05 02:21 | 22.30991 | 113.91590 | 41 ft | 0 kts | 346° |
| 2026-05-05 02:25 | 22.30992 | 113.91589 | 43 ft | 1 kts | 343° |
| 2026-05-05 02:25 | 22.31003 | 113.91582 | 43 ft | 4 kts | 332° |
| 2026-05-05 02:26 | 22.31040 | 113.91562 | 42 ft | 8 kts | 336° |
| 2026-05-05 02:26 | 22.31107 | 113.91534 | 43 ft | 12 kts | 339° |
| 2026-05-05 02:26 | 22.31190 | 113.91503 | 43 ft | 12 kts | 341° |
| 2026-05-05 02:26 | 22.31278 | 113.91471 | 43 ft | 15 kts | 342° |
| 2026-05-05 02:27 | 22.31378 | 113.91428 | 43 ft | 15 kts | 329° |
| 2026-05-05 02:27 | 22.31412 | 113.91350 | 44 ft | 9 kts | 256° |
| 2026-05-05 02:27 | 22.31388 | 113.91280 | 44 ft | 11 kts | 251° |
| 2026-05-05 02:27 | 22.31357 | 113.91182 | 44 ft | 17 kts | 251° |
| 2026-05-05 02:28 | 22.31311 | 113.91039 | 40 ft | 23 kts | 251° |
| 2026-05-05 02:28 | 22.31252 | 113.90854 | 42 ft | 29 kts | 251° |
| 2026-05-05 02:28 | 22.31180 | 113.90633 | 42 ft | 33 kts | 250° |
| 2026-05-05 02:28 | 22.31105 | 113.90401 | 42 ft | 32 kts | 251° |
| 2026-05-05 02:29 | 22.31038 | 113.90190 | 42 ft | 26 kts | 251° |
| 2026-05-05 02:29 | 22.30984 | 113.90026 | 42 ft | 20 kts | 250° |
| 2026-05-05 02:29 | 22.30940 | 113.89887 | 42 ft | 11 kts | 254° |
| 2026-05-05 02:29 | 22.30950 | 113.89816 | 43 ft | 8 kts | 309° |
| 2026-05-05 02:30 | 22.30995 | 113.89790 | 42 ft | 8 kts | 339° |
| 2026-05-05 02:30 | 22.31054 | 113.89770 | 42 ft | 9 kts | 353° |
| 2026-05-05 02:30 | 22.31086 | 113.89789 | 42 ft | 1 kts | 57° |
| 2026-05-05 02:30 | 22.31122 | 113.89880 | 42 ft | 40 kts | 69° |
| 2026-05-05 02:31 | 22.31295 | 113.90420 | 41 ft | 111 kts | 72° |
| 2026-05-05 02:31 | 22.31616 | 113.91411 | 151 ft | 161 kts | 73° |
| 2026-05-05 02:31 | 22.31972 | 113.92530 | 1147 ft | 151 kts | 72° |
| 2026-05-05 02:31 | 22.32318 | 113.93581 | 2045 ft | 156 kts | 75° |
| 2026-05-05 02:32 | 22.32687 | 113.94768 | 2617 ft | 178 kts | 76° |
| 2026-05-05 02:32 | 22.33102 | 113.96094 | 3226 ft | 199 kts | 73° |
| 2026-05-05 02:32 | 22.33548 | 113.97546 | 3957 ft | 217 kts | 77° |
| 2026-05-05 02:32 | 22.33784 | 113.99267 | 4510 ft | 247 kts | 83° |
| 2026-05-05 02:33 | 22.34051 | 114.01220 | 5124 ft | 277 kts | 80° |
| 2026-05-05 02:33 | 22.34377 | 114.03290 | 5957 ft | 280 kts | 83° |
| 2026-05-05 02:33 | 22.34100 | 114.05462 | 5816 ft | 295 kts | 113° |
| 2026-05-05 02:33 | 22.33004 | 114.07250 | 5700 ft | 285 kts | 138° |
| 2026-05-05 02:34 | 22.31351 | 114.08379 | 5581 ft | 279 kts | 162° |
| 2026-05-05 02:34 | 22.29471 | 114.08699 | 5574 ft | 273 kts | 182° |
| 2026-05-05 02:34 | 22.27569 | 114.08657 | 5574 ft | 273 kts | 185° |
| 2026-05-05 02:34 | 22.25661 | 114.08483 | 5698 ft | 279 kts | 188° |
| 2026-05-05 02:35 | 22.23791 | 114.08342 | 7001 ft | 262 kts | 186° |
| 2026-05-05 02:35 | 22.21860 | 114.08237 | 7099 ft | 288 kts | 185° |
| 2026-05-05 02:35 | 22.19925 | 114.08118 | 8429 ft | 273 kts | 186° |
| 2026-05-05 02:35 | 22.18026 | 114.08003 | 9462 ft | 280 kts | 185° |
| 2026-05-05 02:36 | 22.16072 | 114.07884 | 10453 ft | 288 kts | 186° |
| 2026-05-05 02:36 | 22.13985 | 114.07740 | 10803 ft | 308 kts | 186° |
| 2026-05-05 02:36 | 22.11757 | 114.07609 | 11048 ft | 322 kts | 182° |
| 2026-05-05 02:36 | 22.09487 | 114.07537 | 11760 ft | 337 kts | 185° |
| 2026-05-05 02:37 | 22.07093 | 114.07345 | 12447 ft | 348 kts | 186° |
| 2026-05-05 02:37 | 22.04664 | 114.07163 | 13402 ft | 353 kts | 186° |
| 2026-05-05 02:37 | 22.02194 | 114.07028 | 14200 ft | 360 kts | 186° |
| 2026-05-05 02:37 | 21.99670 | 114.06848 | 14967 ft | 364 kts | 187° |
| 2026-05-05 02:38 | 21.97117 | 114.06692 | 15066 ft | 376 kts | 185° |
| 2026-05-05 02:38 | 21.94504 | 114.06575 | 15066 ft | 370 kts | 185° |
| 2026-05-05 02:38 | 21.93725 | 114.06535 | 15063 ft | 367 kts | 186° |
| 2026-05-05 02:38 | 21.93273 | 114.06509 | 15061 ft | 365 kts | 186° |
| 2026-05-05 02:39 | 21.90741 | 114.06345 | 15064 ft | 366 kts | 186° |
| 2026-05-05 02:39 | 21.88172 | 114.06173 | 15547 ft | 370 kts | 187° |
| 2026-05-05 02:39 | 21.85617 | 114.06022 | 16730 ft | 369 kts | 187° |
| 2026-05-05 02:39 | 21.83024 | 114.05864 | 17529 ft | 378 kts | 187° |
| 2026-05-05 02:40 | 21.80378 | 114.05704 | 18419 ft | 381 kts | 187° |
| 2026-05-05 02:40 | 21.77710 | 114.05542 | 19167 ft | 388 kts | 188° |
| 2026-05-05 02:40 | 21.74992 | 114.05376 | 19779 ft | 393 kts | 188° |
| 2026-05-05 02:40 | 21.72281 | 114.05212 | 20391 ft | 397 kts | 188° |
| 2026-05-05 02:41 | 21.69502 | 114.05043 | 20985 ft | 402 kts | 188° |
| 2026-05-05 02:41 | 21.66696 | 114.04872 | 21572 ft | 406 kts | 189° |
| 2026-05-05 02:41 | 21.63858 | 114.04699 | 22131 ft | 410 kts | 189° |
| 2026-05-05 02:41 | 21.60992 | 114.04525 | 22678 ft | 414 kts | 189° |
| 2026-05-05 02:42 | 21.58099 | 114.04349 | 23185 ft | 419 kts | 189° |
| 2026-05-05 02:42 | 21.55171 | 114.04172 | 23674 ft | 423 kts | 189° |
| 2026-05-05 02:42 | 21.52222 | 114.03994 | 24127 ft | 426 kts | 189° |
| 2026-05-05 02:42 | 21.49244 | 114.03813 | 24613 ft | 428 kts | 189° |
| 2026-05-05 02:43 | 21.46260 | 114.03632 | 25045 ft | 431 kts | 189° |
| 2026-05-05 02:43 | 21.43254 | 114.03450 | 25486 ft | 433 kts | 189° |
| 2026-05-05 02:43 | 21.40237 | 114.03253 | 25921 ft | 436 kts | 189° |
| 2026-05-05 02:43 | 21.37203 | 114.03040 | 26353 ft | 438 kts | 189° |
| 2026-05-05 02:44 | 21.34151 | 114.02831 | 26810 ft | 441 kts | 189° |
| 2026-05-05 02:44 | 21.31073 | 114.02629 | 27247 ft | 444 kts | 189° |
| 2026-05-05 02:44 | 21.27982 | 114.02425 | 27668 ft | 447 kts | 189° |
| 2026-05-05 02:44 | 21.24867 | 114.02215 | 28105 ft | 450 kts | 188° |
| 2026-05-05 02:45 | 21.21732 | 114.02004 | 28553 ft | 453 kts | 188° |
| 2026-05-05 02:45 | 21.18579 | 114.01794 | 29025 ft | 455 kts | 188° |
| 2026-05-05 02:45 | 21.15444 | 114.01585 | 29452 ft | 459 kts | 188° |
| 2026-05-05 02:45 | 21.12253 | 114.01372 | 29913 ft | 462 kts | 188° |
| 2026-05-05 02:46 | 21.09038 | 114.01157 | 30331 ft | 465 kts | 188° |
| 2026-05-05 02:46 | 21.05800 | 114.00941 | 30719 ft | 468 kts | 189° |
| 2026-05-05 02:46 | 21.02543 | 114.00724 | 31087 ft | 471 kts | 189° |
| 2026-05-05 02:46 | 20.99264 | 114.00506 | 31456 ft | 474 kts | 189° |
| 2026-05-05 02:47 | 20.95956 | 114.00284 | 31785 ft | 478 kts | 188° |
| 2026-05-05 02:47 | 20.92663 | 113.99869 | 32134 ft | 475 kts | 197° |
| 2026-05-05 02:47 | 20.89420 | 113.99127 | 32489 ft | 477 kts | 197° |
| 2026-05-05 02:47 | 20.86158 | 113.98367 | 32867 ft | 480 kts | 197° |
| 2026-05-05 02:48 | 20.82889 | 113.97597 | 33227 ft | 483 kts | 197° |
| 2026-05-05 02:48 | 20.79629 | 113.96836 | 33572 ft | 486 kts | 197° |
| 2026-05-05 02:48 | 20.76311 | 113.96068 | 33911 ft | 488 kts | 197° |
| 2026-05-05 02:48 | 20.72983 | 113.95295 | 34214 ft | 490 kts | 197° |
| 2026-05-05 02:49 | 20.69651 | 113.94519 | 34651 ft | 490 kts | 197° |
| 2026-05-05 02:49 | 20.66315 | 113.93741 | 35046 ft | 490 kts | 197° |
| 2026-05-05 02:49 | 20.62977 | 113.92967 | 35453 ft | 490 kts | 197° |
| 2026-05-05 02:49 | 20.59643 | 113.92194 | 35868 ft | 489 kts | 197° |
| 2026-05-05 02:50 | 20.56324 | 113.91422 | 36281 ft | 489 kts | 197° |
| 2026-05-05 02:50 | 20.53001 | 113.90650 | 36668 ft | 489 kts | 197° |
| 2026-05-05 02:50 | 20.49672 | 113.89878 | 37076 ft | 489 kts | 197° |
| 2026-05-05 02:50 | 20.46388 | 113.89118 | 37482 ft | 489 kts | 197° |
| 2026-05-05 02:51 | 20.43067 | 113.88348 | 37876 ft | 489 kts | 197° |
| 2026-05-05 02:51 | 20.39739 | 113.87576 | 38267 ft | 488 kts | 197° |
| 2026-05-05 02:51 | 20.36415 | 113.86807 | 38651 ft | 488 kts | 197° |
| 2026-05-05 02:51 | 20.34215 | 113.86297 | 38868 ft | 488 kts | 197° |
| 2026-05-05 02:52 | 20.29775 | 113.85270 | 39317 ft | 487 kts | 197° |
| 2026-05-05 02:52 | 20.27586 | 113.84764 | 39538 ft | 486 kts | 197° |
| 2026-05-05 02:52 | 20.24283 | 113.84000 | 39881 ft | 485 kts | 197° |
| 2026-05-05 02:52 | 20.20968 | 113.83233 | 39990 ft | 490 kts | 197° |
| 2026-05-05 02:53 | 20.17629 | 113.82461 | 39991 ft | 490 kts | 197° |
| 2026-05-05 02:53 | 20.09935 | 113.80688 | 39979 ft | 484 kts | 197° |
| 2026-05-05 02:54 | 20.04441 | 113.79419 | 39990 ft | 481 kts | 197° |
| 2026-05-05 02:54 | 19.97896 | 113.77912 | 39985 ft | 481 kts | 197° |
| 2026-05-05 02:55 | 19.91356 | 113.76405 | 39987 ft | 481 kts | 197° |
| 2026-05-05 02:55 | 19.84808 | 113.74899 | 39988 ft | 482 kts | 197° |
| 2026-05-05 02:56 | 19.78292 | 113.73401 | 39993 ft | 482 kts | 197° |
| 2026-05-05 02:56 | 19.71730 | 113.71894 | 39991 ft | 482 kts | 197° |
| 2026-05-05 02:57 | 19.65180 | 113.70391 | 39990 ft | 481 kts | 197° |
| 2026-05-05 02:57 | 19.58640 | 113.68891 | 39986 ft | 481 kts | 197° |
| 2026-05-05 02:58 | 19.52100 | 113.67393 | 39985 ft | 480 kts | 197° |
| 2026-05-05 02:58 | 19.45568 | 113.65898 | 39987 ft | 481 kts | 197° |
| 2026-05-05 02:59 | 19.38994 | 113.64394 | 39989 ft | 484 kts | 197° |
| 2026-05-05 02:59 | 19.32413 | 113.62891 | 39990 ft | 483 kts | 197° |
| 2026-05-05 03:00 | 19.25866 | 113.61395 | 39990 ft | 483 kts | 197° |
| 2026-05-05 03:00 | 19.19304 | 113.59898 | 39975 ft | 482 kts | 197° |
| 2026-05-05 03:01 | 19.12746 | 113.58403 | 39982 ft | 480 kts | 197° |
| 2026-05-05 03:01 | 19.06216 | 113.56916 | 39981 ft | 479 kts | 197° |
| 2026-05-05 03:02 | 18.99724 | 113.55465 | 39979 ft | 482 kts | 193° |
| 2026-05-05 03:02 | 18.93056 | 113.54507 | 39979 ft | 484 kts | 192° |
| 2026-05-05 03:03 | 18.86364 | 113.53548 | 39984 ft | 484 kts | 192° |
| 2026-05-05 03:03 | 18.79685 | 113.52594 | 39986 ft | 485 kts | 192° |
| 2026-05-05 03:04 | 18.72993 | 113.51638 | 39981 ft | 485 kts | 192° |
| 2026-05-05 03:04 | 18.66304 | 113.50684 | 39981 ft | 485 kts | 192° |
| 2026-05-05 03:05 | 18.59616 | 113.49706 | 39981 ft | 483 kts | 196° |
| 2026-05-05 03:05 | 18.53436 | 113.47283 | 39992 ft | 470 kts | 215° |
| 2026-05-05 03:06 | 18.48149 | 113.43370 | 39982 ft | 468 kts | 220° |
| 2026-05-05 03:06 | 18.42890 | 113.39307 | 39982 ft | 469 kts | 220° |
| 2026-05-05 03:07 | 18.37611 | 113.35240 | 39978 ft | 471 kts | 220° |
| 2026-05-05 03:07 | 18.32329 | 113.31173 | 39981 ft | 469 kts | 220° |
| 2026-05-05 03:08 | 18.27064 | 113.27121 | 39964 ft | 468 kts | 220° |
| 2026-05-05 03:08 | 18.21807 | 113.23080 | 39967 ft | 467 kts | 220° |
| 2026-05-05 03:09 | 18.16560 | 113.19048 | 39966 ft | 466 kts | 220° |
| 2026-05-05 03:09 | 18.11345 | 113.15044 | 39965 ft | 468 kts | 220° |
| 2026-05-05 03:10 | 18.06081 | 113.11006 | 39963 ft | 469 kts | 220° |
| 2026-05-05 03:10 | 18.00809 | 113.06965 | 39961 ft | 470 kts | 220° |
| 2026-05-05 03:11 | 17.95530 | 113.02921 | 39955 ft | 469 kts | 220° |
| 2026-05-05 03:11 | 17.90259 | 112.98887 | 39955 ft | 469 kts | 220° |
| 2026-05-05 03:12 | 17.84987 | 112.94854 | 39958 ft | 468 kts | 220° |
| 2026-05-05 03:12 | 17.79794 | 112.90744 | 39962 ft | 467 kts | 221° |
| 2026-05-05 03:13 | 17.74584 | 112.86653 | 39958 ft | 467 kts | 220° |
| 2026-05-05 03:13 | 17.69377 | 112.82562 | 39957 ft | 467 kts | 220° |
| 2026-05-05 03:14 | 17.64173 | 112.78474 | 39957 ft | 468 kts | 220° |
| 2026-05-05 03:14 | 17.58988 | 112.74408 | 39955 ft | 469 kts | 220° |
| 2026-05-05 03:15 | 17.53749 | 112.70299 | 39961 ft | 470 kts | 220° |
| 2026-05-05 03:15 | 17.48505 | 112.66193 | 39962 ft | 469 kts | 220° |
| 2026-05-05 03:16 | 17.43284 | 112.62104 | 39959 ft | 468 kts | 220° |
| 2026-05-05 03:16 | 17.38077 | 112.58032 | 39959 ft | 467 kts | 220° |
| 2026-05-05 03:17 | 17.32874 | 112.53965 | 39956 ft | 466 kts | 220° |
| 2026-05-05 03:17 | 17.27706 | 112.49927 | 39954 ft | 467 kts | 220° |
| 2026-05-05 03:18 | 17.22483 | 112.45851 | 39956 ft | 468 kts | 220° |
| 2026-05-05 03:18 | 17.17246 | 112.41765 | 39958 ft | 470 kts | 220° |
| 2026-05-05 03:19 | 17.09375 | 112.35632 | 39955 ft | 469 kts | 220° |
| 2026-05-05 03:19 | 17.04148 | 112.31562 | 39956 ft | 468 kts | 220° |
| 2026-05-05 03:20 | 16.98934 | 112.27508 | 39954 ft | 467 kts | 220° |
| 2026-05-05 03:20 | 16.93698 | 112.23558 | 39951 ft | 467 kts | 219° |
| 2026-05-05 03:21 | 16.88438 | 112.19561 | 39954 ft | 468 kts | 220° |
| 2026-05-05 03:21 | 16.83141 | 112.15548 | 39948 ft | 470 kts | 219° |
| 2026-05-05 03:22 | 16.77837 | 112.11532 | 39958 ft | 471 kts | 220° |
| 2026-05-05 03:22 | 16.72531 | 112.07515 | 39956 ft | 471 kts | 220° |
| 2026-05-05 03:23 | 16.67265 | 112.03534 | 39952 ft | 470 kts | 220° |
| 2026-05-05 03:23 | 16.61976 | 111.99536 | 39951 ft | 469 kts | 220° |
| 2026-05-05 03:24 | 16.56694 | 111.95547 | 39949 ft | 469 kts | 220° |
| 2026-05-05 03:24 | 16.51408 | 111.91558 | 39955 ft | 468 kts | 220° |
| 2026-05-05 03:25 | 16.46114 | 111.87565 | 39954 ft | 471 kts | 219° |
| 2026-05-05 03:25 | 16.40800 | 111.83560 | 39955 ft | 471 kts | 219° |
| 2026-05-05 03:26 | 16.35488 | 111.79559 | 39960 ft | 472 kts | 219° |
| 2026-05-05 03:26 | 16.30198 | 111.75578 | 39957 ft | 472 kts | 220° |
| 2026-05-05 03:27 | 16.24759 | 111.71489 | 39948 ft | 466 kts | 220° |
| 2026-05-05 03:27 | 16.07275 | 111.58356 | 39940 ft | 470 kts | 219° |
| 2026-05-05 03:28 | 16.01959 | 111.54371 | 39939 ft | 470 kts | 219° |
| 2026-05-05 03:28 | 15.96656 | 111.50396 | 39945 ft | 470 kts | 219° |
| 2026-05-05 03:29 | 15.91377 | 111.46443 | 39934 ft | 471 kts | 219° |
| 2026-05-05 03:29 | 15.86048 | 111.42454 | 39940 ft | 473 kts | 219° |
| 2026-05-05 03:30 | 15.80701 | 111.38456 | 39943 ft | 474 kts | 219° |
| 2026-05-05 03:30 | 15.75352 | 111.34458 | 39937 ft | 473 kts | 219° |
| 2026-05-05 03:31 | 15.70014 | 111.30471 | 39938 ft | 472 kts | 219° |
| 2026-05-05 03:31 | 15.56403 | 111.20312 | 40017 ft | 469 kts | 219° |
| 2026-05-05 03:32 | 15.33955 | 111.03597 | 39947 ft | 472 kts | 220° |
| 2026-05-05 03:32 | 15.12757 | 110.87473 | 39946 ft | 473 kts | 219° |
| 2026-05-05 03:33 | 14.91552 | 110.71408 | 39940 ft | 477 kts | 219° |
| 2026-05-05 03:33 | 14.70160 | 110.55241 | 39940 ft | 476 kts | 219° |
| 2026-05-05 03:34 | 14.48672 | 110.39042 | 39939 ft | 477 kts | 219° |
| 2026-05-05 03:34 | 14.27213 | 110.22905 | 39938 ft | 477 kts | 219° |
| 2026-05-05 03:35 | 14.05752 | 110.06804 | 39939 ft | 475 kts | 218° |
| 2026-05-05 03:35 | 13.83615 | 109.91580 | 39949 ft | 480 kts | 214° |
| 2026-05-05 03:36 | 13.61094 | 109.77128 | 39939 ft | 478 kts | 214° |
| 2026-05-05 03:36 | 13.38552 | 109.62674 | 39940 ft | 476 kts | 213° |
| 2026-05-05 03:37 | 13.16097 | 109.48310 | 39942 ft | 476 kts | 213° |
| 2026-05-05 03:37 | 12.93386 | 109.33813 | 39954 ft | 482 kts | 213° |
| 2026-05-05 03:38 | 12.70608 | 109.19305 | 39954 ft | 481 kts | 213° |
| 2026-05-05 03:38 | 12.47960 | 109.04921 | 39966 ft | 475 kts | 213° |
| 2026-05-05 03:39 | 12.25408 | 108.90630 | 39974 ft | 476 kts | 213° |
| 2026-05-05 03:39 | 12.02969 | 108.76443 | 39984 ft | 481 kts | 212° |
| 2026-05-05 03:40 | 11.80107 | 108.62015 | 39975 ft | 483 kts | 212° |
| 2026-05-05 03:40 | 11.57126 | 108.47547 | 39934 ft | 485 kts | 212° |
| 2026-05-05 03:41 | 11.37968 | 108.35505 | 39934 ft | 486 kts | 213° |
| 2026-05-05 03:41 | 11.14896 | 108.21031 | 39913 ft | 486 kts | 213° |
| 2026-05-05 03:42 | 10.91863 | 108.06588 | 39910 ft | 486 kts | 214° |
| 2026-05-05 03:42 | 10.69220 | 107.91530 | 39906 ft | 486 kts | 213° |
| 2026-05-05 03:43 | 10.46578 | 107.76520 | 39902 ft | 485 kts | 213° |
| 2026-05-05 03:43 | 10.23865 | 107.61549 | 39908 ft | 488 kts | 212° |
| 2026-05-05 03:44 | 10.01091 | 107.46540 | 39909 ft | 491 kts | 212° |
| 2026-05-05 03:44 | 9.78300 | 107.31523 | 39909 ft | 484 kts | 212° |
| 2026-05-05 03:45 | 9.55635 | 107.16616 | 39913 ft | 490 kts | 213° |
| 2026-05-05 03:45 | 9.32790 | 107.01612 | 39908 ft | 486 kts | 212° |
| 2026-05-05 03:46 | 9.10112 | 106.86745 | 39906 ft | 486 kts | 212° |
| 2026-05-05 03:46 | 8.87245 | 106.71775 | 39909 ft | 489 kts | 213° |
| 2026-05-05 03:47 | 8.64213 | 106.57023 | 39893 ft | 488 kts | 211° |
| 2026-05-05 03:47 | 8.41057 | 106.42639 | 39892 ft | 488 kts | 211° |
| 2026-05-05 03:48 | 8.17840 | 106.28247 | 39889 ft | 490 kts | 211° |
| 2026-05-05 03:48 | 7.94770 | 106.13967 | 39892 ft | 487 kts | 211° |
| 2026-05-05 03:49 | 7.71649 | 105.99675 | 39890 ft | 486 kts | 211° |
| 2026-05-05 03:49 | 7.48578 | 105.85432 | 39891 ft | 485 kts | 210° |
| 2026-05-05 03:50 | 7.25518 | 105.71214 | 39891 ft | 488 kts | 210° |
| 2026-05-05 03:50 | 7.02344 | 105.56943 | 39889 ft | 487 kts | 210° |
| 2026-05-05 03:51 | 6.78302 | 105.44473 | 39891 ft | 485 kts | 206° |
| 2026-05-05 03:51 | 6.54199 | 105.32202 | 39893 ft | 484 kts | 206° |
| 2026-05-05 03:52 | 6.30147 | 105.19985 | 39899 ft | 485 kts | 205° |
| 2026-05-05 03:52 | 6.06187 | 105.07829 | 39895 ft | 485 kts | 205° |
| 2026-05-05 03:53 | 5.82085 | 104.95613 | 39894 ft | 484 kts | 205° |
| 2026-05-05 03:53 | 5.58035 | 104.83435 | 39893 ft | 484 kts | 205° |
| 2026-05-05 03:54 | 5.33928 | 104.71239 | 39889 ft | 485 kts | 205° |
| 2026-05-05 03:54 | 5.09812 | 104.59049 | 39890 ft | 484 kts | 205° |
| 2026-05-05 03:55 | 4.85388 | 104.47945 | 39983 ft | 486 kts | 182° |
| 2026-05-05 03:55 | 4.71922 | 104.49446 | 40900 ft | 491 kts | 173° |
| 2026-05-05 03:55 | 4.58293 | 104.51137 | 40904 ft | 491 kts | 172° |
| 2026-05-05 03:56 | 4.31430 | 104.54506 | 40897 ft | 488 kts | 171° |
| 2026-05-05 03:56 | 4.04265 | 104.57463 | 40895 ft | 488 kts | 173° |
| 2026-05-05 03:57 | 3.77392 | 104.60085 | 40897 ft | 488 kts | 173° |
| 2026-05-05 03:57 | 3.50392 | 104.62735 | 40893 ft | 486 kts | 173° |
| 2026-05-05 03:58 | 3.23475 | 104.65376 | 40884 ft | 483 kts | 173° |
| 2026-05-05 03:58 | 3.01577 | 104.64192 | 40758 ft | 484 kts | 210° |
| 2026-05-05 03:59 | 2.98828 | 104.62198 | 39835 ft | 491 kts | 223° |
| 2026-05-05 03:59 | 2.96471 | 104.59713 | 39063 ft | 494 kts | 228° |
| 2026-05-05 03:59 | 2.94237 | 104.57087 | 38313 ft | 495 kts | 229° |
| 2026-05-05 03:59 | 2.91962 | 104.54512 | 37469 ft | 494 kts | 225° |
| 2026-05-05 04:00 | 2.89582 | 104.52074 | 36515 ft | 496 kts | 224° |
| 2026-05-05 04:00 | 2.87165 | 104.49590 | 35670 ft | 498 kts | 226° |
| 2026-05-05 04:00 | 2.84843 | 104.47059 | 35174 ft | 490 kts | 227° |
| 2026-05-05 04:00 | 2.82543 | 104.44544 | 34537 ft | 486 kts | 226° |
| 2026-05-05 04:01 | 2.80232 | 104.42094 | 33960 ft | 482 kts | 225° |
| 2026-05-05 04:01 | 2.77935 | 104.39673 | 33310 ft | 478 kts | 226° |
| 2026-05-05 04:01 | 2.75675 | 104.37252 | 32681 ft | 473 kts | 226° |
| 2026-05-05 04:01 | 2.73445 | 104.34852 | 32050 ft | 469 kts | 226° |
| 2026-05-05 04:02 | 2.71224 | 104.32479 | 31432 ft | 465 kts | 225° |
| 2026-05-05 04:02 | 2.69013 | 104.30127 | 30830 ft | 461 kts | 225° |
| 2026-05-05 04:02 | 2.66828 | 104.27795 | 30220 ft | 457 kts | 225° |
| 2026-05-05 04:02 | 2.64664 | 104.25478 | 29577 ft | 453 kts | 225° |
| 2026-05-05 04:03 | 2.62520 | 104.23187 | 28908 ft | 449 kts | 225° |
| 2026-05-05 04:03 | 2.60420 | 104.20946 | 28257 ft | 445 kts | 225° |
| 2026-05-05 04:03 | 2.58306 | 104.18690 | 27583 ft | 442 kts | 225° |
| 2026-05-05 04:03 | 2.56215 | 104.16456 | 26920 ft | 439 kts | 225° |
| 2026-05-05 04:04 | 2.54122 | 104.14244 | 26296 ft | 434 kts | 223° |
| 2026-05-05 04:04 | 2.51757 | 104.12414 | 25666 ft | 428 kts | 209° |
| 2026-05-05 04:04 | 2.49072 | 104.11178 | 25058 ft | 422 kts | 195° |
| 2026-05-05 04:04 | 2.46227 | 104.10579 | 24449 ft | 415 kts | 183° |
| 2026-05-05 04:05 | 2.43360 | 104.10504 | 23826 ft | 411 kts | 178° |
| 2026-05-05 04:05 | 2.40512 | 104.10488 | 23206 ft | 408 kts | 178° |
| 2026-05-05 04:05 | 2.37688 | 104.10497 | 22552 ft | 403 kts | 178° |
| 2026-05-05 04:05 | 2.34900 | 104.10505 | 21914 ft | 399 kts | 178° |
| 2026-05-05 04:06 | 2.32172 | 104.10503 | 21298 ft | 395 kts | 178° |
| 2026-05-05 04:06 | 2.29440 | 104.10498 | 20671 ft | 390 kts | 178° |
| 2026-05-05 04:06 | 2.26754 | 104.10498 | 19843 ft | 380 kts | 178° |
| 2026-05-05 04:06 | 2.24108 | 104.10500 | 18794 ft | 379 kts | 178° |
| 2026-05-05 04:07 | 2.21492 | 104.10501 | 17820 ft | 372 kts | 178° |
| 2026-05-05 04:07 | 2.18928 | 104.10500 | 16760 ft | 365 kts | 178° |
| 2026-05-05 04:07 | 2.16395 | 104.10500 | 15849 ft | 364 kts | 178° |
| 2026-05-05 04:07 | 2.13895 | 104.10500 | 15316 ft | 356 kts | 178° |
| 2026-05-05 04:08 | 2.11422 | 104.10500 | 14657 ft | 354 kts | 178° |
| 2026-05-05 04:08 | 2.08970 | 104.10500 | 14036 ft | 350 kts | 178° |
| 2026-05-05 04:08 | 2.06544 | 104.10501 | 13383 ft | 347 kts | 178° |
| 2026-05-05 04:08 | 2.04142 | 104.10501 | 12716 ft | 343 kts | 179° |
| 2026-05-05 04:09 | 2.01774 | 104.10501 | 12053 ft | 339 kts | 179° |
| 2026-05-05 04:09 | 1.99426 | 104.10501 | 11404 ft | 335 kts | 179° |
| 2026-05-05 04:09 | 1.97107 | 104.10504 | 10775 ft | 332 kts | 179° |
| 2026-05-05 04:09 | 1.94877 | 104.10516 | 10728 ft | 307 kts | 179° |
| 2026-05-05 04:10 | 1.92850 | 104.10528 | 10229 ft | 281 kts | 179° |
| 2026-05-05 04:10 | 1.90877 | 104.10537 | 9503 ft | 285 kts | 180° |
| 2026-05-05 04:10 | 1.88925 | 104.10544 | 9094 ft | 279 kts | 180° |
| 2026-05-05 04:10 | 1.87010 | 104.10553 | 8582 ft | 277 kts | 180° |
| 2026-05-05 04:11 | 1.85066 | 104.10562 | 8082 ft | 275 kts | 180° |
| 2026-05-05 04:11 | 1.83159 | 104.10570 | 7584 ft | 273 kts | 180° |
| 2026-05-05 04:11 | 1.81291 | 104.10578 | 7085 ft | 272 kts | 180° |
| 2026-05-05 04:11 | 1.79405 | 104.10587 | 6603 ft | 270 kts | 180° |
| 2026-05-05 04:12 | 1.77552 | 104.10595 | 6393 ft | 257 kts | 180° |
| 2026-05-05 04:12 | 1.75824 | 104.10603 | 6334 ft | 240 kts | 180° |
| 2026-05-05 04:12 | 1.74156 | 104.10610 | 5945 ft | 238 kts | 180° |
| 2026-05-05 04:12 | 1.72504 | 104.10618 | 5400 ft | 238 kts | 180° |
| 2026-05-05 04:13 | 1.70849 | 104.10626 | 4908 ft | 238 kts | 180° |
| 2026-05-05 04:13 | 1.69264 | 104.10633 | 4707 ft | 223 kts | 180° |
| 2026-05-05 04:13 | 1.67685 | 104.10640 | 4162 ft | 228 kts | 180° |
| 2026-05-05 04:13 | 1.66106 | 104.10624 | 3768 ft | 229 kts | 184° |
| 2026-05-05 04:14 | 1.64556 | 104.10424 | 3719 ft | 219 kts | 192° |
| 2026-05-05 04:14 | 1.63145 | 104.09949 | 3688 ft | 210 kts | 203° |
| 2026-05-05 04:14 | 1.61837 | 104.09386 | 3689 ft | 199 kts | 204° |
| 2026-05-05 04:14 | 1.60603 | 104.08854 | 3685 ft | 191 kts | 204° |
| 2026-05-05 04:15 | 1.59417 | 104.08342 | 3676 ft | 180 kts | 204° |
| 2026-05-05 04:15 | 1.58310 | 104.07863 | 3659 ft | 168 kts | 204° |
| 2026-05-05 04:15 | 1.57276 | 104.07417 | 3472 ft | 156 kts | 204° |
| 2026-05-05 04:15 | 1.56274 | 104.06984 | 3000 ft | 154 kts | 204° |
| 2026-05-05 04:16 | 1.55309 | 104.06567 | 2975 ft | 154 kts | 204° |
| 2026-05-05 04:16 | 1.54307 | 104.06135 | 2967 ft | 157 kts | 204° |
| 2026-05-05 04:16 | 1.53302 | 104.05701 | 2973 ft | 159 kts | 204° |
| 2026-05-05 04:16 | 1.52285 | 104.05259 | 2970 ft | 160 kts | 204° |
| 2026-05-05 04:17 | 1.51250 | 104.04812 | 2792 ft | 160 kts | 204° |
| 2026-05-05 04:17 | 1.50253 | 104.04381 | 2591 ft | 155 kts | 204° |
| 2026-05-05 04:17 | 1.49308 | 104.03971 | 2398 ft | 154 kts | 204° |
| 2026-05-05 04:17 | 1.48333 | 104.03551 | 2213 ft | 151 kts | 204° |
| 2026-05-05 04:18 | 1.47377 | 104.03138 | 2065 ft | 150 kts | 204° |
| 2026-05-05 04:18 | 1.46408 | 104.02714 | 1804 ft | 154 kts | 204° |
| 2026-05-05 04:18 | 1.45449 | 104.02286 | 1567 ft | 148 kts | 204° |
| 2026-05-05 04:18 | 1.44510 | 104.01868 | 1439 ft | 149 kts | 204° |
| 2026-05-05 04:19 | 1.43562 | 104.01449 | 1279 ft | 149 kts | 205° |
| 2026-05-05 04:19 | 1.42610 | 104.01025 | 1078 ft | 149 kts | 204° |
| 2026-05-05 04:19 | 1.41659 | 104.00614 | 853 ft | 149 kts | 203° |
| 2026-05-05 04:19 | 1.40708 | 104.00212 | 667 ft | 149 kts | 204° |
| 2026-05-05 04:20 | 1.39755 | 103.99798 | 500 ft | 149 kts | 203° |
| 2026-05-05 04:20 | 1.38808 | 103.99393 | 330 ft | 148 kts | 201° |
| 2026-05-05 04:20 | 1.37856 | 103.98998 | 135 ft | 147 kts | 201° |
| 2026-05-05 04:20 | 1.36929 | 103.98604 | 39 ft | 138 kts | 201° |
| 2026-05-05 04:21 | 1.36222 | 103.98303 | 36 ft | 79 kts | 202° |
| 2026-05-05 04:21 | 1.35868 | 103.98157 | 36 ft | 43 kts | 202° |
| 2026-05-05 04:21 | 1.35640 | 103.98113 | 36 ft | 27 kts | 177° |
| 2026-05-05 04:21 | 1.35518 | 103.98125 | 36 ft | 0 kts | 171° |
| 2026-05-05 04:22 | 1.35507 | 103.98126 | 36 ft | 3 kts | 171° |
| 2026-05-05 04:23 | 1.35475 | 103.98131 | 36 ft | 6 kts | 173° |
| 2026-05-05 04:23 | 1.35425 | 103.98136 | 36 ft | 9 kts | 174° |
| 2026-05-05 04:23 | 1.35356 | 103.98143 | 36 ft | 11 kts | 173° |
| 2026-05-05 04:23 | 1.35324 | 103.98164 | 36 ft | 1 kts | 117° |
| 2026-05-05 04:24 | 1.35323 | 103.98173 | 36 ft | 2 kts | 101° |
| 2026-05-05 04:24 | 1.35324 | 103.98191 | 36 ft | 3 kts | 81° |
| 2026-05-05 04:24 | 1.35332 | 103.98204 | 36 ft | 2 kts | 59° |
| 2026-05-05 04:25 | 1.35370 | 103.98241 | 36 ft | 3 kts | 19° |
| 2026-05-05 04:25 | 1.35405 | 103.98254 | 34 ft | 8 kts | 21° |
| 2026-05-05 04:25 | 1.35469 | 103.98281 | 35 ft | 12 kts | 24° |
| 2026-05-05 04:25 | 1.35562 | 103.98321 | 36 ft | 17 kts | 23° |
| 2026-05-05 04:26 | 1.35682 | 103.98373 | 36 ft | 21 kts | 24° |
| 2026-05-05 04:26 | 1.35822 | 103.98429 | 36 ft | 23 kts | 21° |
| 2026-05-05 04:26 | 1.35972 | 103.98491 | 36 ft | 23 kts | 24° |
| 2026-05-05 04:26 | 1.36056 | 103.98568 | 36 ft | 13 kts | 67° |
| 2026-05-05 04:27 | 1.36099 | 103.98633 | 36 ft | 10 kts | 30° |
| 2026-05-05 04:27 | 1.36142 | 103.98656 | 36 ft | 12 kts | 26° |
| 2026-05-05 04:27 | 1.36192 | 103.98695 | 36 ft | 6 kts | 65° |
| 2026-05-05 04:27 | 1.36188 | 103.98733 | 36 ft | 6 kts | 103° |
| 2026-05-05 04:28 | 1.36173 | 103.98774 | 36 ft | 0 kts | 113° |